Time;durP1;ratioP1;P1;durP2;ratioP2;P2;SDS_P1;SDS_P2;PMS_P1;PMS_P2;Temp;Humidity;BMP_temperature;BMP_pressure;BME280_temperature;BME280_humidity;BME280_pressure;Samples;Min_cycle;Max_cycle;Signal;HPM_P1;HPM_P2
2022/12/14 00:00:03;;;;;;;8.20;5.03;;;14.80;53.00;;;;;;10488252;28;20053;-28
2022/12/14 00:05:06;;;;;;;7.78;4.07;;;14.90;53.00;;;;;;10485589;28;20145;-28
2022/12/14 00:10:09;;;;;;;5.75;3.85;;;14.90;52.90;;;;;;10493796;28;20075;-26
2022/12/14 00:15:11;;;;;;;;;;;14.80;52.80;;;;;;10482742;28;20395;-28
2022/12/14 00:20:14;;;;;;;7.18;4.85;;;14.90;52.70;;;;;;10490031;28;20345;-26
2022/12/14 00:25:16;;;;;;;13.02;6.80;;;14.80;52.80;;;;;;10484800;28;20105;-26
2022/12/14 00:30:20;;;;;;;10.17;6.53;;;14.80;52.70;;;;;;10492868;28;20139;-29
2022/12/14 00:35:23;;;;;;;5.65;4.05;;;14.80;52.60;;;;;;10474493;28;20118;-30
2022/12/14 00:40:25;;;;;;;7.63;4.35;;;14.80;52.70;;;;;;10491022;28;20045;-26
2022/12/14 00:45:27;;;;;;;8.43;4.90;;;14.80;52.60;;;;;;10480630;28;20048;-27
2022/12/14 00:50:30;;;;;;;14.70;8.33;;;14.90;52.50;;;;;;10490001;28;20044;-25
2022/12/14 00:55:37;;;;;;;9.57;5.65;;;14.80;52.60;;;;;;10496190;28;20157;-27
2022/12/14 01:00:40;;;;;;;12.90;8.13;;;14.70;52.50;;;;;;10488690;28;20071;-26
2022/12/14 01:05:43;;;;;;;7.18;4.32;;;14.70;52.50;;;;;;10482447;28;20057;-27
2022/12/14 01:10:45;;;;;;;6.13;3.92;;;14.80;52.40;;;;;;10483893;28;20404;-27
2022/12/14 01:15:46;;;;;;;6.78;4.22;;;14.70;52.30;;;;;;10506992;28;20447;-27
2022/12/14 01:20:49;;;;;;;6.83;4.27;;;14.70;52.20;;;;;;10493957;28;20118;-26
2022/12/14 01:25:51;;;;;;;12.05;6.88;;;14.70;52.20;;;;;;10486836;28;20118;-28
2022/12/14 01:30:53;;;;;;;9.50;4.60;;;14.70;52.20;;;;;;10499571;28;20048;-27
2022/12/14 01:35:56;;;;;;;6.37;4.03;;;14.70;52.10;;;;;;10482897;28;20060;-27
2022/12/14 01:40:59;;;;;;;8.50;5.60;;;14.70;52.10;;;;;;10495375;28;20052;-26
2022/12/14 01:46:01;;;;;;;8.13;5.13;;;14.70;52.20;;;;;;10485473;28;20084;-31
2022/12/14 01:51:04;;;;;;;8.17;4.17;;;14.70;52.10;;;;;;10487268;28;20132;-26
2022/12/14 01:56:07;;;;;;;5.22;4.03;;;14.70;52.00;;;;;;10486873;28;20080;-27
2022/12/14 02:01:10;;;;;;;6.95;3.55;;;14.70;52.00;;;;;;10490252;28;20048;-27
2022/12/14 02:06:16;;;;;;;6.28;3.58;;;14.70;51.90;;;;;;10491607;28;20059;-26
2022/12/14 02:11:27;;;;;;;5.53;3.65;;;14.70;51.90;;;;;;10486470;28;20143;-23
2022/12/14 02:16:29;;;;;;;6.68;4.10;;;14.60;52.00;;;;;;10479781;28;20469;-27
2022/12/14 02:21:50;;;;;;;4.77;3.37;;;14.70;51.90;;;;;;10489829;28;20436;-27
2022/12/14 02:27:15;;;;;;;6.30;3.67;;;14.60;51.80;;;;;;10476435;28;20569;-25
2022/12/14 02:32:34;;;;;;;7.47;3.55;;;14.60;51.90;;;;;;10482373;28;20048;-27
2022/12/14 02:37:44;;;;;;;7.05;4.10;;;14.60;51.70;;;;;;10491832;28;20116;-26
2022/12/14 02:42:54;;;;;;;9.75;5.55;;;14.60;51.70;;;;;;10490247;28;20457;-28
2022/12/14 02:48:02;;;;;;;7.90;4.25;;;14.60;51.80;;;;;;10488299;28;20076;-27
2022/12/14 02:53:14;;;;;;;7.45;4.38;;;14.60;51.60;;;;;;10478835;28;20532;-29
2022/12/14 02:58:20;;;;;;;6.88;3.80;;;14.60;51.60;;;;;;10480974;28;20083;-27
2022/12/14 03:03:24;;;;;;;6.97;4.47;;;14.50;51.60;;;;;;10486460;28;20080;-29
2022/12/14 03:08:29;;;;;;;7.85;4.78;;;14.60;51.60;;;;;;10492908;28;20053;-26
2022/12/14 03:13:35;;;;;;;4.28;2.90;;;14.50;51.60;;;;;;10483876;28;20056;-27
2022/12/14 03:18:42;;;;;;;8.00;4.00;;;14.50;51.60;;;;;;10474676;28;20478;-26
2022/12/14 03:23:47;;;;;;;5.63;3.85;;;14.50;51.50;;;;;;10484813;28;20052;-27
2022/12/14 03:28:54;;;;;;;4.85;3.50;;;14.50;51.50;;;;;;10487228;28;20044;-26
2022/12/14 03:34:01;;;;;;;7.75;3.92;;;14.50;51.50;;;;;;10507323;28;20049;-28
2022/12/14 03:39:07;;;;;;;5.10;3.35;;;14.50;51.50;;;;;;10491198;28;20496;-26
2022/12/14 03:44:18;;;;;;;3.55;2.50;;;14.50;51.40;;;;;;10486473;28;20064;-28
2022/12/14 03:49:31;;;;;;;6.32;4.53;;;14.40;51.40;;;;;;10491314;28;20466;-28
2022/12/14 03:54:45;;;;;;;5.22;3.03;;;14.50;51.40;;;;;;10491887;28;20057;-26
2022/12/14 03:59:55;;;;;;;5.10;3.47;;;14.50;51.40;;;;;;10491819;28;20133;-29
2022/12/14 04:05:06;;;;;;;6.55;3.80;;;14.40;51.30;;;;;;10498582;28;20102;-31
2022/12/14 04:20:59;;;;;;;6.75;3.45;;;14.40;51.20;;;;;;10493273;28;20056;-26
2022/12/14 04:26:04;;;;;;;3.35;3.03;;;14.40;51.30;;;;;;10489324;28;20129;-27
2022/12/14 04:31:10;;;;;;;4.90;2.92;;;14.40;51.20;;;;;;10479514;28;20143;-22
2022/12/14 04:36:16;;;;;;;7.97;3.47;;;14.40;51.10;;;;;;10490935;28;20052;-28
2022/12/14 04:41:23;;;;;;;4.40;2.78;;;14.50;50.90;;;;;;10500143;28;20040;-27
2022/12/14 04:46:27;;;;;;;4.57;3.05;;;14.60;50.80;;;;;;10488994;28;20040;-28
2022/12/14 04:51:35;;;;;;;4.88;2.92;;;14.70;50.70;;;;;;10482305;28;20044;-29
2022/12/14 04:56:43;;;;;;;3.70;2.78;;;14.70;50.60;;;;;;10482765;28;20476;-29
2022/12/14 05:01:53;;;;;;;4.07;2.97;;;14.80;50.60;;;;;;10480065;28;20052;-25
2022/12/14 05:07:10;;;;;;;4.40;2.85;;;14.80;50.60;;;;;;10488289;28;20068;-26
2022/12/14 05:12:18;;;;;;;3.95;2.55;;;14.80;50.70;;;;;;10488601;28;20049;-28
2022/12/14 05:17:20;;;;;;;3.92;2.47;;;14.90;50.70;;;;;;10483766;28;20051;-27
2022/12/14 05:22:23;;;;;;;3.47;2.72;;;14.90;50.70;;;;;;10491153;28;20045;-28
2022/12/14 05:27:25;;;;;;;3.40;2.45;;;14.90;50.70;;;;;;10489363;28;20117;-29
2022/12/14 05:32:29;;;;;;;3.43;2.27;;;14.90;50.90;;;;;;10475500;28;20078;-25
2022/12/14 05:37:32;;;;;;;4.47;2.88;;;14.90;50.90;;;;;;10474129;28;20566;-27
2022/12/14 05:42:34;;;;;;;3.47;2.70;;;14.90;50.90;;;;;;10480223;28;20049;-25
2022/12/14 05:47:36;;;;;;;8.50;2.97;;;14.90;50.90;;;;;;10474331;28;20045;-27
2022/12/14 05:52:40;;;;;;;3.00;2.30;;;15.00;50.90;;;;;;10468776;28;20063;-27
2022/12/14 05:57:41;;;;;;;5.35;2.58;;;15.00;51.10;;;;;;10474866;28;20420;-27
2022/12/14 06:02:43;;;;;;;3.03;2.20;;;15.00;50.90;;;;;;10474960;28;20048;-30
2022/12/14 06:07:46;;;;;;;5.83;2.70;;;15.00;50.80;;;;;;10475759;28;20041;-27
2022/12/14 06:12:49;;;;;;;4.15;2.67;;;15.00;50.70;;;;;;10485560;28;20053;-25
2022/12/14 06:17:51;;;;;;;3.30;2.23;;;15.00;50.70;;;;;;10476949;28;20452;-25
2022/12/14 06:22:55;;;;;;;4.20;2.30;;;15.00;50.70;;;;;;10487199;28;20478;-30
2022/12/14 06:27:57;;;;;;;3.22;2.42;;;15.00;50.80;;;;;;10467721;28;20076;-26
2022/12/14 06:32:59;;;;;;;3.50;2.08;;;15.00;50.80;;;;;;10482322;28;20056;-26
2022/12/14 06:38:02;;;;;;;4.27;2.23;;;15.00;50.80;;;;;;10484876;28;20059;-27
2022/12/14 06:43:05;;;;;;;3.97;2.70;;;14.90;50.80;;;;;;10490411;28;21152;-30
2022/12/14 06:48:07;;;;;;;4.63;2.42;;;14.90;50.80;;;;;;10478737;28;20068;-27
2022/12/14 06:53:13;;;;;;;4.00;2.50;;;14.90;50.90;;;;;;10471642;28;20044;-27
2022/12/14 06:58:15;;;;;;;4.22;2.40;;;14.90;50.70;;;;;;10479578;28;20121;-27
2022/12/14 07:15:29;;;;;;;3.50;2.35;;;14.90;50.20;;;;;;10498759;27;20118;-27
2022/12/14 07:20:31;;;;;;;4.72;3.65;;;14.80;50.90;;;;;;10522807;28;20052;-29
2022/12/14 07:25:33;;;;;;;7.43;4.23;;;14.80;50.90;;;;;;10518213;28;20131;-26
2022/12/14 07:30:36;;;;;;;8.97;4.53;;;14.80;50.90;;;;;;10518472;28;20044;-26
2022/12/14 07:35:38;;;;;;;7.78;3.67;;;14.80;50.90;;;;;;10509500;28;20056;-30
2022/12/14 07:40:40;;;;;;;5.47;3.43;;;14.70;50.80;;;;;;10508754;28;20045;-28
2022/12/14 07:45:43;;;;;;;6.27;4.20;;;14.70;50.80;;;;;;10516738;28;20452;-27
2022/12/14 07:50:45;;;;;;;7.85;3.90;;;14.70;50.90;;;;;;10514160;28;20040;-28
2022/12/14 07:55:47;;;;;;;7.77;3.60;;;14.70;50.90;;;;;;10505994;28;20056;-26
2022/12/14 08:00:50;;;;;;;9.73;5.60;;;14.70;51.00;;;;;;10524179;28;20401;-26
2022/12/14 08:05:52;;;;;;;9.07;5.10;;;14.70;50.90;;;;;;10511688;28;20052;-28
2022/12/14 08:10:54;;;;;;;8.43;4.63;;;14.60;50.90;;;;;;10510254;28;20121;-27
2022/12/14 08:16:02;;;;;;;6.17;3.47;;;14.60;50.90;;;;;;10509929;28;20411;-32
2022/12/14 08:21:06;;;;;;;6.55;3.22;;;14.60;51.50;;;;;;10514835;28;20106;-28
2022/12/14 08:26:08;;;;;;;7.53;3.20;;;14.60;50.80;;;;;;10486686;28;20060;-27
2022/12/14 08:31:13;;;;;;;6.97;3.95;;;14.60;50.70;;;;;;10470485;28;20481;-27
2022/12/14 08:36:17;;;;;;;5.57;3.42;;;14.60;50.70;;;;;;10492576;28;20052;-29
2022/12/14 08:41:19;;;;;;;5.30;3.13;;;14.50;50.60;;;;;;10477408;28;20052;-27
2022/12/14 08:46:23;;;;;;;6.40;3.83;;;14.60;50.60;;;;;;10490119;28;20461;-28
2022/12/14 08:51:26;;;;;;;6.20;3.60;;;14.50;50.50;;;;;;10481643;28;20107;-29
2022/12/14 08:56:29;;;;;;;4.30;2.95;;;14.50;50.50;;;;;;10480079;28;20137;-26
2022/12/14 09:01:32;;;;;;;5.85;3.45;;;14.60;50.50;;;;;;10476816;28;20655;-26
2022/12/14 09:06:36;;;;;;;8.77;4.75;;;14.50;50.50;;;;;;10475656;28;20402;-26
2022/12/14 09:11:38;;;;;;;7.57;4.25;;;14.50;50.40;;;;;;10484522;28;20071;-26
2022/12/14 09:16:42;;;;;;;8.77;4.18;;;14.50;50.40;;;;;;10480975;28;20046;-30
2022/12/14 09:21:43;;;;;;;5.07;3.15;;;14.40;50.40;;;;;;10491179;28;20045;-26
2022/12/14 09:26:46;;;;;;;4.80;2.83;;;14.40;50.30;;;;;;10485758;28;20048;-29
2022/12/14 09:31:49;;;;;;;3.53;2.53;;;14.40;50.30;;;;;;10474489;28;20106;-29
2022/12/14 09:36:52;;;;;;;4.10;2.78;;;14.50;50.30;;;;;;10473900;28;20040;-26
2022/12/14 09:42:06;;;;;;;4.32;2.83;;;14.40;50.30;;;;;;10487659;28;20071;-26
2022/12/14 09:47:15;;;;;;;5.88;2.65;;;14.40;50.30;;;;;;10476206;28;20441;-26
2022/12/14 09:52:20;;;;;;;4.57;2.80;;;14.40;50.10;;;;;;10475673;28;20122;-26
2022/12/14 09:57:29;;;;;;;4.57;2.67;;;14.40;50.10;;;;;;10476240;28;20486;-27
2022/12/14 10:02:47;;;;;;;5.70;2.65;;;14.40;50.10;;;;;;10481616;28;20128;-28
2022/12/14 10:07:58;;;;;;;3.72;2.55;;;14.40;50.10;;;;;;10480322;28;20080;-26
2022/12/14 10:13:07;;;;;;;3.45;2.72;;;14.40;49.90;;;;;;10478449;28;20064;-26
2022/12/14 10:18:51;;;;;;;3.95;2.70;;;14.40;49.90;;;;;;10482039;28;20524;-26
2022/12/14 10:23:57;;;;;;;3.83;2.38;;;14.40;50.00;;;;;;10430834;28;20048;-25
2022/12/14 10:29:03;;;;;;;4.68;2.70;;;14.40;50.00;;;;;;10481660;28;20181;-25
2022/12/14 10:34:16;;;;;;;4.60;2.75;;;14.40;49.90;;;;;;10483010;28;20040;-28
2022/12/14 10:39:25;;;;;;;3.83;2.13;;;14.40;50.10;;;;;;10474427;28;20106;-27
2022/12/14 10:44:40;;;;;;;14.00;3.45;;;14.40;50.00;;;;;;10497531;28;20482;-27
2022/12/14 10:49:57;;;;;;;3.53;2.47;;;14.40;50.20;;;;;;10490053;28;20114;-27
2022/12/14 10:55:09;;;;;;;4.13;2.30;;;14.40;50.10;;;;;;10486731;28;20468;-25
2022/12/14 11:00:19;;;;;;;4.17;2.40;;;14.40;50.10;;;;;;10486709;28;20051;-28
2022/12/14 11:05:34;;;;;;;9.85;5.78;;;14.40;50.00;;;;;;10468270;28;20106;-27
2022/12/14 11:10:38;;;;;;;4.13;3.17;;;14.40;50.00;;;;;;10462868;28;20049;-26
2022/12/14 11:15:41;;;;;;;4.72;2.95;;;14.40;50.00;;;;;;10488258;28;20049;-28
2022/12/14 11:20:51;;;;;;;4.47;2.90;;;14.40;50.10;;;;;;10481347;28;20543;-26
2022/12/14 11:25:55;;;;;;;5.40;2.40;;;14.40;50.00;;;;;;10482028;28;20137;-29
2022/12/14 11:31:03;;;;;;;4.90;2.65;;;14.40;49.90;;;;;;10472414;28;20051;-28
2022/12/14 11:36:07;;;;;;;5.82;3.22;;;14.40;49.90;;;;;;10480303;28;20052;-26
2022/12/14 11:41:20;;;;;;;3.92;2.58;;;14.40;49.80;;;;;;10478011;28;20057;-27
2022/12/14 11:46:22;;;;;;;;;;;14.40;49.80;;;;;;10475242;28;20040;-26
2022/12/14 11:51:25;;;;;;;6.20;2.60;;;14.40;49.70;;;;;;10473633;28;19974;-30
2022/12/14 11:56:27;;;;;;;5.00;2.25;;;14.40;49.70;;;;;;10484452;28;20067;-27
2022/12/14 12:01:29;;;;;;;3.67;2.37;;;14.30;49.60;;;;;;10479438;28;20044;-28
2022/12/14 12:06:33;;;;;;;3.75;2.00;;;14.40;49.60;;;;;;10475882;28;20071;-26
2022/12/14 12:11:35;;;;;;;3.38;2.13;;;14.40;49.60;;;;;;10475705;28;20053;-24
2022/12/14 12:16:43;;;;;;;3.03;2.55;;;14.40;49.60;;;;;;10478062;28;20425;-28
2022/12/14 12:21:47;;;;;;;4.57;2.08;;;14.40;49.60;;;;;;10483813;28;20124;-27
2022/12/14 12:26:52;;;;;;;3.40;2.40;;;14.40;49.60;;;;;;10479100;28;20045;-28
2022/12/14 12:31:57;;;;;;;5.20;2.35;;;14.40;49.60;;;;;;10482036;28;21492;-30
2022/12/14 12:37:08;;;;;;;2.65;1.85;;;14.40;49.50;;;;;;10481024;28;20048;-27
2022/12/14 12:42:23;;;;;;;4.00;2.15;;;14.40;49.70;;;;;;10485743;28;20071;-30
2022/12/14 12:47:29;;;;;;;2.92;1.98;;;14.40;49.90;;;;;;10487526;28;20120;-30
2022/12/14 12:52:36;;;;;;;5.28;2.42;;;14.40;50.00;;;;;;10480042;28;20052;-26
2022/12/14 12:57:41;;;;;;;5.47;1.98;;;14.40;50.10;;;;;;10487043;28;20044;-27
2022/12/14 13:02:49;;;;;;;3.65;2.05;;;14.50;50.10;;;;;;10502075;28;20069;-26
2022/12/14 13:07:54;;;;;;;3.75;2.30;;;14.60;50.10;;;;;;10487466;28;20040;-26
2022/12/14 13:12:59;;;;;;;3.22;1.63;;;14.70;50.00;;;;;;10482676;28;20440;-27
2022/12/14 13:18:05;;;;;;;4.63;2.15;;;14.70;50.00;;;;;;10487566;28;20460;-28
2022/12/14 13:23:11;;;;;;;2.88;1.77;;;14.80;50.00;;;;;;10483974;28;20571;-27
2022/12/14 13:28:30;;;;;;;4.40;2.03;;;14.90;50.00;;;;;;10486606;28;20095;-31
2022/12/14 13:33:56;;;;;;;3.03;2.30;;;14.90;50.10;;;;;;10487143;28;20079;-27
2022/12/14 13:39:14;;;;;;;5.53;2.15;;;14.90;50.10;;;;;;10475377;28;20053;-27
2022/12/14 13:44:43;;;;;;;3.92;2.25;;;15.00;50.20;;;;;;10469299;28;20185;-26
2022/12/14 13:49:54;;;;;;;3.75;1.83;;;15.10;50.30;;;;;;10478190;28;20072;-27
2022/12/14 13:54:58;;;;;;;3.17;2.08;;;15.20;49.90;;;;;;10467070;28;20049;-27
2022/12/14 14:00:00;;;;;;;4.72;2.75;;;15.20;50.00;;;;;;10459115;28;20114;-31
2022/12/14 14:05:37;;;;;;;5.80;3.42;;;15.20;50.00;;;;;;10471008;28;20481;-29
2022/12/14 14:10:41;;;;;;;7.70;4.63;;;15.20;49.90;;;;;;10484497;28;20045;-26
2022/12/14 14:15:50;;;;;;;9.00;5.35;;;15.20;50.50;;;;;;10480374;28;20143;-27
2022/12/14 14:20:53;;;;;;;13.15;6.82;;;15.20;50.00;;;;;;10486518;28;20040;-28
2022/12/14 14:26:19;;;;;;;15.32;6.15;;;15.20;50.00;;;;;;10488301;28;20072;-28
2022/12/14 14:31:21;;;;;;;16.02;7.60;;;15.30;50.00;;;;;;10475559;28;20048;-25
2022/12/14 14:36:29;;;;;;;14.17;7.40;;;15.30;50.00;;;;;;10480805;28;20052;-26
2022/12/14 14:41:37;;;;;;;14.43;6.75;;;15.30;49.80;;;;;;10471124;28;20083;-28
2022/12/14 14:46:48;;;;;;;15.38;7.05;;;15.40;49.80;;;;;;10477881;28;20086;-27
2022/12/14 14:51:50;;;;;;;16.33;8.52;;;15.40;49.70;;;;;;10469726;28;20058;-27
2022/12/14 14:56:54;;;;;;;15.00;8.27;;;15.40;49.70;;;;;;10478860;28;20045;-27
2022/12/14 15:01:59;;;;;;;14.85;8.40;;;15.40;49.70;;;;;;10482288;28;20052;-27
2022/12/14 15:07:04;;;;;;;16.27;8.30;;;15.50;49.70;;;;;;10488033;28;20052;-25
2022/12/14 15:12:21;;;;;;;20.33;9.73;;;15.40;49.70;;;;;;10485605;28;20140;-27
2022/12/14 15:17:25;;;;;;;17.85;9.98;;;15.40;49.80;;;;;;10483331;28;20040;-30
2022/12/14 15:22:29;;;;;;;18.17;9.32;;;15.40;49.90;;;;;;10488045;28;20466;-26
2022/12/14 15:27:35;;;;;;;15.07;8.18;;;15.40;50.00;;;;;;10462201;28;20059;-27
2022/12/14 15:32:38;;;;;;;6.40;3.80;;;15.40;50.00;;;;;;10465678;28;20684;-27
2022/12/14 15:37:47;;;;;;;2.90;2.00;;;15.40;50.00;;;;;;10475036;28;20052;-27
2022/12/14 15:42:53;;;;;;;4.80;2.00;;;15.30;50.00;;;;;;10488995;28;20539;-26
2022/12/14 15:47:55;;;;;;;3.33;1.70;;;15.30;49.90;;;;;;10485537;28;20044;-26
2022/12/14 15:53:07;;;;;;;3.25;1.30;;;15.40;49.90;;;;;;10493270;28;20055;-24
2022/12/14 15:58:22;;;;;;;2.73;1.13;;;15.40;50.00;;;;;;10477110;28;20503;-29
2022/12/14 16:03:28;;;;;;;2.63;1.65;;;15.40;50.10;;;;;;10483364;28;20580;-24
2022/12/14 16:08:33;;;;;;;4.63;1.50;;;16.20;49.60;;;;;;10480851;28;20575;-30
2022/12/14 16:13:40;;;;;;;2.75;1.80;;;16.40;48.60;;;;;;10490281;28;20515;-29
2022/12/14 16:18:45;;;;;;;3.85;1.27;;;16.10;49.30;;;;;;10488636;28;20115;-28
2022/12/14 16:23:49;;;;;;;3.10;1.50;;;15.90;49.60;;;;;;10478653;28;20489;-26
2022/12/14 16:29:07;;;;;;;3.40;1.50;;;16.30;49.00;;;;;;10486547;28;20437;-28
2022/12/14 16:34:15;;;;;;;2.30;1.45;;;16.70;49.40;;;;;;10487227;28;20049;-26
2022/12/14 16:39:20;;;;;;;2.72;1.80;;;16.20;49.80;;;;;;10492848;28;20049;-28
2022/12/14 16:44:36;;;;;;;2.83;1.55;;;16.00;50.00;;;;;;10496850;28;20053;-27
2022/12/14 16:49:40;;;;;;;3.88;2.22;;;15.90;50.10;;;;;;10483682;28;20071;-27
2022/12/14 16:54:42;;;;;;;6.65;3.17;;;15.90;50.30;;;;;;10487078;28;20060;-28
2022/12/14 16:59:55;;;;;;;3.25;2.35;;;15.80;50.30;;;;;;10481574;28;20057;-33
2022/12/14 17:05:00;;;;;;;5.00;1.92;;;15.80;50.20;;;;;;10475234;28;20094;-31
2022/12/14 17:10:02;;;;;;;10.25;2.67;;;15.80;50.30;;;;;;10474038;28;20088;-29
2022/12/14 17:15:06;;;;;;;9.63;5.28;;;15.80;50.20;;;;;;10482758;28;20150;-27
2022/12/14 17:20:17;;;;;;;13.70;7.95;;;15.60;50.30;;;;;;10492393;28;20045;-29
2022/12/14 17:25:20;;;;;;;19.80;9.25;;;15.60;50.50;;;;;;10479390;28;20087;-27
2022/12/14 17:30:25;;;;;;;18.92;8.90;;;15.50;50.60;;;;;;10468026;28;20056;-30
2022/12/14 17:35:30;;;;;;;15.65;8.32;;;15.40;50.70;;;;;;10467533;28;20059;-32
2022/12/14 17:40:32;;;;;;;18.15;8.63;;;15.40;50.80;;;;;;10482914;28;20109;-30
2022/12/14 17:45:36;;;;;;;8.63;4.90;;;15.30;50.80;;;;;;10482019;28;20500;-28
2022/12/14 17:50:40;;;;;;;6.85;2.97;;;15.40;50.60;;;;;;10487377;28;20489;-29
2022/12/14 17:55:42;;;;;;;11.30;3.30;;;15.50;50.50;;;;;;10476821;28;20159;-28
2022/12/14 18:01:01;;;;;;;5.32;3.35;;;15.50;50.40;;;;;;10480793;28;20405;-27
2022/12/14 18:06:05;;;;;;;5.53;2.10;;;15.50;50.40;;;;;;10470184;28;20055;-26
2022/12/14 18:11:09;;;;;;;8.13;2.67;;;15.50;50.70;;;;;;10481521;28;20508;-27
2022/12/14 18:16:15;;;;;;;14.00;6.53;;;15.50;50.90;;;;;;10475547;28;20056;-29
2022/12/14 18:21:20;;;;;;;14.73;8.02;;;15.40;51.20;;;;;;10458039;28;20041;-28
2022/12/14 18:26:23;;;;;;;16.23;7.57;;;15.30;51.30;;;;;;10475695;28;20101;-30
2022/12/14 18:31:28;;;;;;;;;;;15.30;51.40;;;;;;10467366;28;20059;-28
2022/12/14 18:36:31;;;;;;;13.10;7.47;;;15.20;51.60;;;;;;10471780;28;20658;-29
2022/12/14 18:41:33;;;;;;;12.35;6.15;;;15.20;51.70;;;;;;10474560;28;20049;-28
2022/12/14 18:46:38;;;;;;;17.50;7.50;;;15.20;51.90;;;;;;10469348;28;20052;-33
2022/12/14 18:51:40;;;;;;;15.02;6.90;;;15.20;51.80;;;;;;10466378;28;20433;-27
2022/12/14 18:56:43;;;;;;;17.45;7.72;;;15.00;52.00;;;;;;10462689;28;20525;-27
2022/12/14 19:01:46;;;;;;;13.95;7.13;;;15.00;52.00;;;;;;10463992;28;20606;-26
2022/12/14 19:06:48;;;;;;;15.00;8.38;;;15.00;52.10;;;;;;10465594;28;20555;-30
2022/12/14 19:11:50;;;;;;;12.07;5.33;;;15.00;52.20;;;;;;10475937;28;20060;-28
2022/12/14 19:16:53;;;;;;;7.18;3.58;;;15.20;51.80;;;;;;10474187;28;20498;-31
2022/12/14 19:21:55;;;;;;;6.75;3.50;;;15.30;51.70;;;;;;10478974;28;20095;-28
2022/12/14 19:26:58;;;;;;;7.83;3.30;;;15.30;51.80;;;;;;10473199;28;20383;-29
2022/12/14 19:32:01;;;;;;;7.88;3.63;;;15.20;51.70;;;;;;10478269;28;20502;-28
2022/12/14 19:37:03;;;;;;;10.02;3.92;;;15.20;51.80;;;;;;10474048;28;20056;-30
2022/12/14 19:42:05;;;;;;;5.50;3.03;;;15.30;51.80;;;;;;10475084;28;20105;-30
2022/12/14 19:47:09;;;;;;;4.93;3.10;;;15.20;51.80;;;;;;10474327;28;20492;-32
2022/12/14 19:52:11;;;;;;;13.25;3.95;;;15.30;51.90;;;;;;10460664;28;20049;-29
2022/12/14 19:57:14;;;;;;;7.95;3.13;;;15.20;51.80;;;;;;10478124;28;20045;-27
2022/12/14 20:02:17;;;;;;;6.68;3.33;;;15.20;51.90;;;;;;10474261;28;20118;-26
2022/12/14 20:07:19;;;;;;;6.35;3.38;;;15.20;51.90;;;;;;10463851;28;20131;-27
2022/12/14 20:12:21;;;;;;;11.27;3.05;;;15.20;51.90;;;;;;10476023;28;20053;-27
2022/12/14 20:17:24;;;;;;;5.43;2.63;;;15.20;52.00;;;;;;10475706;28;20084;-27
2022/12/14 20:22:26;;;;;;;7.25;3.20;;;15.30;51.90;;;;;;10480115;28;20071;-26
2022/12/14 20:27:28;;;;;;;6.60;2.97;;;15.30;51.90;;;;;;10476493;28;20489;-27
2022/12/14 20:32:31;;;;;;;8.38;3.20;;;15.30;51.90;;;;;;10472085;28;20502;-28
2022/12/14 20:37:33;;;;;;;11.23;4.13;;;15.20;51.90;;;;;;10481741;28;20056;-27
2022/12/14 20:42:35;;;;;;;6.83;3.43;;;15.30;51.80;;;;;;10487879;28;20049;-27
2022/12/14 20:47:38;;;;;;;9.87;3.30;;;14.80;52.80;;;;;;10479722;28;20040;-32
2022/12/14 20:52:40;;;;;;;4.45;2.85;;;15.00;52.40;;;;;;10484530;28;20478;-35
2022/12/14 20:57:42;;;;;;;7.43;3.20;;;15.20;51.70;;;;;;10484351;28;20142;-27
2022/12/14 21:02:45;;;;;;;8.50;3.13;;;15.20;51.60;;;;;;10466864;28;20168;-29
2022/12/14 21:07:47;;;;;;;9.13;3.80;;;15.20;51.50;;;;;;10480297;28;20056;-32
2022/12/14 21:12:49;;;;;;;5.27;2.70;;;15.30;51.50;;;;;;10460470;28;20064;-30
2022/12/14 21:17:52;;;;;;;10.40;3.43;;;15.30;51.40;;;;;;10481122;28;20075;-29
2022/12/14 21:22:54;;;;;;;5.82;3.53;;;15.30;51.40;;;;;;10502799;28;20498;-27
2022/12/14 21:27:56;;;;;;;15.53;3.30;;;15.30;51.40;;;;;;10473564;28;20098;-29
2022/12/14 21:33:00;;;;;;;6.07;2.90;;;15.30;51.50;;;;;;10477724;28;20067;-28
2022/12/14 21:38:02;;;;;;;3.75;2.42;;;15.30;51.40;;;;;;10473445;28;21018;-30
2022/12/14 21:43:04;;;;;;;5.57;3.10;;;15.20;51.40;;;;;;10485705;28;20075;-28
2022/12/14 21:48:07;;;;;;;5.27;2.80;;;15.20;51.40;;;;;;10488014;28;20747;-28
2022/12/14 21:53:09;;;;;;;8.93;2.60;;;15.20;51.40;;;;;;10484846;28;20536;-30
2022/12/14 21:58:17;;;;;;;4.77;2.60;;;15.20;51.50;;;;;;10472375;28;20053;-27
2022/12/14 22:03:20;;;;;;;3.95;2.35;;;15.20;51.50;;;;;;10460904;28;20052;-28
2022/12/14 22:08:22;;;;;;;7.15;3.17;;;15.20;51.60;;;;;;10468866;28;20122;-29
2022/12/14 22:13:24;;;;;;;3.43;2.50;;;15.20;51.60;;;;;;10463527;28;20133;-27
2022/12/14 22:18:27;;;;;;;4.57;2.40;;;15.10;51.50;;;;;;10476884;28;20063;-27
2022/12/14 22:23:30;;;;;;;3.45;2.60;;;15.20;51.60;;;;;;10473541;28;20036;-24
2022/12/14 22:28:32;;;;;;;3.55;2.55;;;15.10;51.50;;;;;;10465356;28;20048;-28
2022/12/14 22:33:35;;;;;;;4.75;2.45;;;15.10;52.10;;;;;;10480819;28;20127;-26
2022/12/14 22:38:37;;;;;;;2.67;2.35;;;15.10;51.50;;;;;;10484881;28;20440;-33
2022/12/14 22:43:39;;;;;;;4.63;2.23;;;15.10;51.40;;;;;;10465932;28;20049;-26
2022/12/14 22:48:42;;;;;;;5.87;2.33;;;15.10;51.40;;;;;;10473706;28;20079;-29
2022/12/14 22:53:44;;;;;;;3.28;1.83;;;15.10;51.40;;;;;;10467467;28;20107;-27
2022/12/14 22:58:50;;;;;;;2.87;1.90;;;15.10;51.40;;;;;;10474818;28;20567;-29
2022/12/14 23:03:53;;;;;;;8.80;3.65;;;15.10;52.00;;;;;;10468662;28;20076;-28
